createdAt,value
2023-05-08T00:02:37.966Z,32.8
2023-05-08T00:08:30.792Z,32.7
2023-05-08T00:14:22.661Z,32.7
2023-05-08T00:20:14.710Z,32.7
2023-05-08T00:26:06.701Z,32.6
2023-05-08T00:31:58.079Z,32.6
2023-05-08T00:37:34.121Z,32.6
2023-05-08T00:43:25.548Z,32.6
2023-05-08T00:49:17.556Z,32.6
2023-05-08T00:54:37.777Z,32.5
2023-05-08T00:59:57.870Z,32.5
2023-05-08T01:11:10.633Z,32.4
2023-05-08T01:17:01.588Z,32.4
2023-05-08T01:22:52.823Z,32.4
2023-05-08T01:28:44.811Z,32.4
2023-05-08T01:34:36.665Z,32.3
2023-05-08T01:40:29.198Z,32.3
2023-05-08T01:46:05.245Z,32.3
2023-05-08T01:51:56.836Z,32.3
2023-05-08T01:57:49.035Z,32.2
2023-05-08T02:03:41.358Z,32.2
2023-05-08T02:09:32.503Z,32.2
2023-05-08T02:15:24.646Z,32.2
2023-05-08T02:21:16.758Z,32.2
2023-05-08T02:27:08.364Z,32.1
2023-05-08T02:33:00.860Z,32.1
2023-05-08T02:38:59.968Z,32.1
2023-05-08T02:44:51.807Z,32.1
2023-05-08T02:50:46.521Z,32
2023-05-08T02:56:37.988Z,32
2023-05-08T03:02:29.860Z,31.9
2023-05-08T03:08:21.967Z,31.9
2023-05-08T03:14:13.485Z,31.9
2023-05-08T03:20:05.085Z,31.8
2023-05-08T03:25:56.718Z,31.8
2023-05-08T03:31:48.496Z,31.8
2023-05-08T03:37:39.989Z,31.8
2023-05-08T03:43:31.454Z,31.8
2023-05-08T03:49:23.643Z,31.7
2023-05-08T03:55:15.382Z,31.7
2023-05-08T04:01:07.133Z,31.6
2023-05-08T04:07:06.869Z,31.6
2023-05-08T04:12:57.943Z,31.6
2023-05-08T04:18:52.657Z,31.6
2023-05-08T04:24:44.377Z,31.6
2023-05-08T04:30:36.246Z,31.5
2023-05-08T04:36:28.338Z,31.5
2023-05-08T04:42:21.247Z,31.4
2023-05-08T04:48:13.744Z,31.4
2023-05-08T04:54:05.507Z,31.4
2023-05-08T04:59:56.524Z,31.2
2023-05-08T05:05:48.748Z,31.1
2023-05-08T05:11:40.464Z,30.9
2023-05-08T05:17:33.443Z,31
2023-05-08T05:23:25.606Z,31.1
2023-05-08T05:29:16.636Z,31.1
2023-05-08T05:35:08.353Z,31.1
2023-05-08T05:41:00.988Z,31.1
2023-05-08T05:46:55.293Z,31
2023-05-08T05:52:46.917Z,26.5
2023-05-08T05:58:39.031Z,29.4
2023-05-08T06:04:31.719Z,29.4
2023-05-08T06:10:24.991Z,29.9
2023-05-08T06:16:19.020Z,31.7
2023-05-08T06:22:11.297Z,32.5
2023-05-08T06:28:02.739Z,33.6
2023-05-08T06:33:58.103Z,33.1
2023-05-08T06:39:54.685Z,34.5
2023-05-08T06:45:51.402Z,35.3
2023-05-08T06:51:44.094Z,36.8
2023-05-08T06:57:36.006Z,36.3
2023-05-08T07:03:37.079Z,36.1
2023-05-08T07:09:29.531Z,36.8
2023-05-08T07:15:37.972Z,35.7
2023-05-08T07:21:31.951Z,35.4
2023-05-08T07:27:24.190Z,35.4
2023-05-08T07:33:18.121Z,35.9
2023-05-08T07:38:54.872Z,37
2023-05-08T07:44:37.427Z,38.4
2023-05-08T07:50:36.238Z,40.4
2023-05-08T07:56:29.352Z,39.9
2023-05-08T08:02:05.996Z,40.9
2023-05-08T08:07:59.625Z,40.9
2023-05-08T08:13:51.993Z,40.4
2023-05-08T08:19:45.225Z,41.4
2023-05-08T08:25:38.397Z,43.8
2023-05-08T08:31:42.682Z,42.2
2023-05-08T08:37:35.779Z,41.8
2023-05-08T08:43:13.871Z,41.9
2023-05-08T08:49:10.285Z,41.5
2023-05-08T08:55:02.451Z,41.5
2023-05-08T09:00:55.541Z,41
2023-05-08T09:06:51.106Z,40.5
2023-05-08T09:12:43.207Z,39.9
2023-05-08T09:18:40.448Z,39.5
2023-05-08T09:24:18.052Z,39.5
2023-05-08T09:30:10.007Z,39.7
2023-05-08T09:36:03.961Z,38.9
2023-05-08T09:41:56.255Z,38.6
2023-05-08T09:47:49.423Z,38.6
2023-05-08T09:53:43.935Z,39.1
2023-05-08T09:59:36.736Z,41.6
2023-05-08T10:05:29.938Z,42.1
2023-05-08T10:11:42.079Z,41.7
2023-05-08T10:17:34.557Z,41.6
2023-05-08T10:23:25.467Z,41.2
2023-05-08T10:29:33.409Z,41.4
2023-05-08T10:35:26.209Z,44.3
2023-05-08T10:41:18.138Z,48.3
2023-05-08T10:47:11.321Z,49.9
2023-05-08T10:53:03.705Z,50.7
2023-05-08T10:58:56.299Z,51.4
2023-05-08T11:05:03.160Z,52.1
2023-05-08T11:10:55.527Z,52.6
2023-05-08T11:16:47.582Z,53.2
2023-05-08T11:22:50.373Z,53.6
2023-05-08T11:28:42.657Z,54.1
2023-05-08T11:34:35.081Z,54.4
2023-05-08T11:40:26.957Z,54.9
2023-05-08T11:46:18.389Z,54.9
2023-05-08T11:52:14.119Z,55.3
2023-05-08T11:57:53.091Z,52.3
2023-05-08T12:04:03.433Z,54.7
2023-05-08T12:09:55.650Z,53.9
2023-05-08T12:15:49.187Z,53
2023-05-08T12:21:26.588Z,51.2
2023-05-08T12:27:17.772Z,49.9
2023-05-08T12:33:09.901Z,49.5
2023-05-08T12:39:01.530Z,53.3
2023-05-08T12:44:53.296Z,52.8
2023-05-08T12:50:31.585Z,51.9
2023-05-08T12:56:08.269Z,51.6
2023-05-08T13:02:00.149Z,51.5
2023-05-08T13:08:05.726Z,50.4
2023-05-08T13:14:01.702Z,50
2023-05-08T13:19:54.325Z,48.7
2023-05-08T13:25:47.137Z,47.3
2023-05-08T13:31:41.973Z,46.4
2023-05-08T13:37:37.663Z,44.9
2023-05-08T13:43:31.012Z,42.6
2023-05-08T13:49:23.201Z,41.2
2023-05-08T13:55:23.075Z,40.3
2023-05-08T14:01:29.999Z,39.7
2023-05-08T14:07:23.869Z,39.1
2023-05-08T14:13:20.399Z,38.8
2023-05-08T14:19:17.184Z,38.4
2023-05-08T14:25:11.106Z,38.2
2023-05-08T14:30:48.364Z,37.9
2023-05-08T14:36:27.587Z,37.8
2023-05-08T14:42:40.248Z,37.5
2023-05-08T14:48:32.171Z,36.8
2023-05-08T15:16:27.700Z,32.9
2023-05-08T15:22:20.268Z,33.8
2023-05-08T15:28:11.643Z,34.4
2023-05-08T15:33:50.308Z,34.7
2023-05-08T15:39:45.970Z,34.7
2023-05-08T15:45:48.151Z,34.8
2023-05-08T15:51:42.609Z,34.7
2023-05-08T15:57:35.201Z,34.6
2023-05-08T16:03:34.885Z,34.5
2023-05-08T16:09:29.494Z,34.4
2023-05-08T16:15:23.391Z,34.3
2023-05-08T16:20:59.859Z,34.2
2023-05-08T16:26:54.255Z,34.1
2023-05-08T16:32:48.318Z,34
2023-05-08T16:38:45.951Z,33.9
2023-05-08T16:44:46.789Z,33.9
2023-05-08T16:50:33.114Z,33.9
2023-05-08T16:56:16.134Z,33.8
2023-05-08T17:02:19.525Z,33.7
2023-05-08T17:08:22.048Z,33.7
2023-05-08T17:14:21.674Z,33.6
2023-05-08T17:20:26.038Z,33.6
2023-05-08T17:26:10.178Z,33.5
2023-05-08T17:32:11.951Z,33.4
2023-05-08T17:38:16.220Z,33.4
2023-05-08T17:44:17.465Z,33.3
2023-05-08T17:50:18.694Z,33.3
2023-05-08T17:56:22.328Z,33.3
2023-05-08T18:02:22.712Z,33.2
2023-05-08T18:08:18.160Z,33.1
2023-05-08T18:14:13.001Z,32.9
2023-05-08T18:20:05.784Z,32.8
2023-05-08T18:25:57.141Z,32.8
2023-05-08T18:31:52.318Z,32.6
2023-05-08T18:37:47.345Z,32.5
2023-05-08T18:43:23.776Z,32.4
2023-05-08T18:49:18.340Z,32.4
2023-05-08T18:55:11.471Z,32.3
2023-05-08T19:01:03.108Z,32.2
2023-05-08T19:06:58.486Z,31.6
2023-05-08T19:12:50.766Z,31
2023-05-08T19:18:43.194Z,30.3
2023-05-08T19:24:38.134Z,29.4
2023-05-08T19:30:31.370Z,28.8
2023-05-08T19:36:08.421Z,28.1
2023-05-08T19:42:18.506Z,27.6
2023-05-08T19:48:17.584Z,27.2
2023-05-08T19:54:10.162Z,26.8
2023-05-08T20:00:04.920Z,26.4
2023-05-08T20:06:19.442Z,26.2
2023-05-08T20:11:55.776Z,25.9
2023-05-08T20:17:50.383Z,25.7
2023-05-08T20:23:42.575Z,25.5
2023-05-08T20:29:33.582Z,25.4
2023-05-08T20:35:29.587Z,25.3
2023-05-08T20:41:21.810Z,25.1
2023-05-08T20:47:12.910Z,25
2023-05-08T20:53:09.020Z,24.9
2023-05-08T20:58:48.573Z,24.9
2023-05-08T21:04:43.685Z,24.8
2023-05-08T21:10:37.791Z,24.8
2023-05-08T21:16:29.837Z,24.7
2023-05-08T21:22:21.280Z,24.7
2023-05-08T21:28:15.742Z,24.6
2023-05-08T21:34:07.917Z,24.6
2023-05-08T21:39:59.328Z,24.6
2023-05-08T21:45:53.031Z,24.5
2023-05-08T21:51:44.090Z,24.4
2023-05-08T21:57:34.277Z,24.4
2023-05-08T22:03:29.651Z,24.4
2023-05-08T22:09:21.475Z,24.4
2023-05-08T22:15:26.047Z,24.4
2023-05-08T22:21:23.959Z,24.3
2023-05-08T22:27:15.808Z,24.3
2023-05-08T22:32:51.659Z,24.3
2023-05-08T22:38:45.261Z,24.3
2023-05-08T22:44:36.403Z,24.3
2023-05-08T22:50:28.011Z,24.3
2023-05-08T22:56:22.658Z,24.3
2023-05-08T23:02:14.364Z,24.3
2023-05-08T23:08:04.964Z,24.2
2023-05-08T23:13:59.147Z,24.2
2023-05-08T23:19:50.412Z,24.2
2023-05-08T23:25:42.741Z,24.2
2023-05-08T23:31:36.437Z,24.1
2023-05-08T23:37:28.023Z,24.1
2023-05-08T23:43:18.212Z,24.1
2023-05-08T23:49:12.452Z,24.1
2023-05-08T23:55:04.752Z,24.1
